sensor_id;sensor_type;location;lat;lon;timestamp;P1;durP1;ratioP1;P2;durP2;ratioP2
37241;SDS011;23135;51.078;12.108;2023-05-23T00:02:18;10.18;;;8.73;;
37241;SDS011;23135;51.078;12.108;2023-05-23T00:04:44;8.15;;;7.35;;
37241;SDS011;23135;51.078;12.108;2023-05-23T00:07:09;13.57;;;7.70;;
37241;SDS011;23135;51.078;12.108;2023-05-23T00:09:35;13.27;;;7.10;;
37241;SDS011;23135;51.078;12.108;2023-05-23T00:12:01;12.35;;;6.90;;
37241;SDS011;23135;51.078;12.108;2023-05-23T00:14:27;9.15;;;6.72;;
37241;SDS011;23135;51.078;12.108;2023-05-23T00:16:57;8.10;;;6.45;;
37241;SDS011;23135;51.078;12.108;2023-05-23T00:19:24;10.23;;;7.00;;
37241;SDS011;23135;51.078;12.108;2023-05-23T00:21:49;8.75;;;6.07;;
37241;SDS011;23135;51.078;12.108;2023-05-23T00:24:17;14.50;;;7.05;;
37241;SDS011;23135;51.078;12.108;2023-05-23T00:26:44;11.30;;;6.90;;
37241;SDS011;23135;51.078;12.108;2023-05-23T00:29:10;8.23;;;6.25;;
37241;SDS011;23135;51.078;12.108;2023-05-23T00:31:42;7.82;;;6.07;;
37241;SDS011;23135;51.078;12.108;2023-05-23T00:34:10;9.77;;;6.43;;
37241;SDS011;23135;51.078;12.108;2023-05-23T00:36:37;10.98;;;7.22;;
37241;SDS011;23135;51.078;12.108;2023-05-23T00:39:03;9.00;;;7.43;;
37241;SDS011;23135;51.078;12.108;2023-05-23T00:41:29;8.35;;;6.85;;
37241;SDS011;23135;51.078;12.108;2023-05-23T00:43:56;9.55;;;6.97;;
37241;SDS011;23135;51.078;12.108;2023-05-23T00:46:24;12.95;;;7.20;;
37241;SDS011;23135;51.078;12.108;2023-05-23T00:48:50;14.30;;;7.82;;
37241;SDS011;23135;51.078;12.108;2023-05-23T00:51:16;9.60;;;7.40;;
37241;SDS011;23135;51.078;12.108;2023-05-23T00:53:42;9.00;;;6.72;;
37241;SDS011;23135;51.078;12.108;2023-05-23T00:56:07;9.32;;;7.20;;
37241;SDS011;23135;51.078;12.108;2023-05-23T00:58:33;10.52;;;7.15;;
37241;SDS011;23135;51.078;12.108;2023-05-23T01:00:59;13.45;;;6.93;;
37241;SDS011;23135;51.078;12.108;2023-05-23T01:03:25;13.98;;;7.85;;
37241;SDS011;23135;51.078;12.108;2023-05-23T01:05:52;9.05;;;7.80;;
37241;SDS011;23135;51.078;12.108;2023-05-23T01:08:19;11.27;;;7.68;;
37241;SDS011;23135;51.078;12.108;2023-05-23T01:10:45;10.35;;;7.80;;
37241;SDS011;23135;51.078;12.108;2023-05-23T01:13:23;9.45;;;7.97;;
37241;SDS011;23135;51.078;12.108;2023-05-23T01:16:06;9.20;;;6.88;;
37241;SDS011;23135;51.078;12.108;2023-05-23T01:18:39;15.75;;;8.73;;
37241;SDS011;23135;51.078;12.108;2023-05-23T01:21:14;12.23;;;8.35;;
37241;SDS011;23135;51.078;12.108;2023-05-23T01:29:23;11.05;;;8.05;;
37241;SDS011;23135;51.078;12.108;2023-05-23T01:31:54;16.17;;;9.30;;
37241;SDS011;23135;51.078;12.108;2023-05-23T01:34:22;14.45;;;9.18;;
37241;SDS011;23135;51.078;12.108;2023-05-23T01:36:54;15.02;;;8.88;;
37241;SDS011;23135;51.078;12.108;2023-05-23T01:41:46;10.13;;;8.60;;
37241;SDS011;23135;51.078;12.108;2023-05-23T01:44:12;11.40;;;9.02;;
37241;SDS011;23135;51.078;12.108;2023-05-23T01:46:38;10.98;;;8.88;;
37241;SDS011;23135;51.078;12.108;2023-05-23T01:49:04;16.15;;;9.40;;
37241;SDS011;23135;51.078;12.108;2023-05-23T01:51:32;14.68;;;9.32;;
37241;SDS011;23135;51.078;12.108;2023-05-23T01:53:58;12.40;;;9.32;;
37241;SDS011;23135;51.078;12.108;2023-05-23T01:56:25;12.30;;;9.27;;
37241;SDS011;23135;51.078;12.108;2023-05-23T01:58:52;10.63;;;8.90;;
37241;SDS011;23135;51.078;12.108;2023-05-23T02:01:18;11.57;;;9.13;;
37241;SDS011;23135;51.078;12.108;2023-05-23T02:03:44;12.68;;;9.80;;
37241;SDS011;23135;51.078;12.108;2023-05-23T02:06:10;16.10;;;9.93;;
37241;SDS011;23135;51.078;12.108;2023-05-23T02:08:36;12.15;;;10.07;;
37241;SDS011;23135;51.078;12.108;2023-05-23T02:11:01;12.23;;;10.02;;
37241;SDS011;23135;51.078;12.108;2023-05-23T02:13:27;20.13;;;9.93;;
37241;SDS011;23135;51.078;12.108;2023-05-23T02:15:52;19.05;;;10.35;;
37241;SDS011;23135;51.078;12.108;2023-05-23T02:18:18;13.05;;;9.90;;
37241;SDS011;23135;51.078;12.108;2023-05-23T02:20:44;13.73;;;10.30;;
37241;SDS011;23135;51.078;12.108;2023-05-23T02:23:10;15.40;;;10.20;;
37241;SDS011;23135;51.078;12.108;2023-05-23T02:25:35;14.63;;;10.85;;
37241;SDS011;23135;51.078;12.108;2023-05-23T02:28:01;14.57;;;10.85;;
37241;SDS011;23135;51.078;12.108;2023-05-23T02:30:26;13.55;;;10.90;;
37241;SDS011;23135;51.078;12.108;2023-05-23T02:32:52;14.85;;;11.40;;
37241;SDS011;23135;51.078;12.108;2023-05-23T02:35:17;16.27;;;11.82;;
37241;SDS011;23135;51.078;12.108;2023-05-23T02:37:43;27.88;;;12.10;;
37241;SDS011;23135;51.078;12.108;2023-05-23T02:40:08;16.75;;;12.20;;
37241;SDS011;23135;51.078;12.108;2023-05-23T02:42:34;18.10;;;11.57;;
37241;SDS011;23135;51.078;12.108;2023-05-23T02:45:00;19.52;;;12.30;;
37241;SDS011;23135;51.078;12.108;2023-05-23T02:47:26;16.48;;;11.77;;
37241;SDS011;23135;51.078;12.108;2023-05-23T02:49:51;15.73;;;11.32;;
37241;SDS011;23135;51.078;12.108;2023-05-23T02:52:17;15.73;;;11.10;;
37241;SDS011;23135;51.078;12.108;2023-05-23T02:54:42;15.68;;;11.05;;
37241;SDS011;23135;51.078;12.108;2023-05-23T02:57:08;14.23;;;11.38;;
37241;SDS011;23135;51.078;12.108;2023-05-23T02:59:34;16.63;;;11.15;;
37241;SDS011;23135;51.078;12.108;2023-05-23T03:02:00;17.10;;;11.10;;
37241;SDS011;23135;51.078;12.108;2023-05-23T03:04:26;18.75;;;11.45;;
37241;SDS011;23135;51.078;12.108;2023-05-23T03:06:51;13.43;;;10.98;;
37241;SDS011;23135;51.078;12.108;2023-05-23T03:09:18;13.18;;;10.85;;
37241;SDS011;23135;51.078;12.108;2023-05-23T03:11:44;16.75;;;9.82;;
37241;SDS011;23135;51.078;12.108;2023-05-23T03:14:09;10.57;;;9.45;;
37241;SDS011;23135;51.078;12.108;2023-05-23T03:16:35;12.35;;;8.63;;
37241;SDS011;23135;51.078;12.108;2023-05-23T03:19:01;11.23;;;9.38;;
37241;SDS011;23135;51.078;12.108;2023-05-23T03:21:26;12.25;;;9.27;;
37241;SDS011;23135;51.078;12.108;2023-05-23T03:23:52;10.93;;;8.45;;
37241;SDS011;23135;51.078;12.108;2023-05-23T03:26:17;15.20;;;9.27;;
37241;SDS011;23135;51.078;12.108;2023-05-23T03:28:43;10.93;;;8.82;;
37241;SDS011;23135;51.078;12.108;2023-05-23T03:31:09;11.57;;;9.15;;
37241;SDS011;23135;51.078;12.108;2023-05-23T03:33:34;10.93;;;9.73;;
37241;SDS011;23135;51.078;12.108;2023-05-23T03:36:00;13.77;;;8.75;;
37241;SDS011;23135;51.078;12.108;2023-05-23T03:38:26;15.85;;;10.52;;
37241;SDS011;23135;51.078;12.108;2023-05-23T03:40:52;10.95;;;9.45;;
37241;SDS011;23135;51.078;12.108;2023-05-23T03:43:18;13.10;;;9.88;;
37241;SDS011;23135;51.078;12.108;2023-05-23T03:45:48;18.73;;;10.38;;
37241;SDS011;23135;51.078;12.108;2023-05-23T03:48:14;15.40;;;10.65;;
37241;SDS011;23135;51.078;12.108;2023-05-23T03:50:40;13.93;;;8.98;;
37241;SDS011;23135;51.078;12.108;2023-05-23T03:53:05;11.30;;;9.70;;
37241;SDS011;23135;51.078;12.108;2023-05-23T03:55:31;10.48;;;8.60;;
37241;SDS011;23135;51.078;12.108;2023-05-23T03:57:57;13.75;;;9.20;;
37241;SDS011;23135;51.078;12.108;2023-05-23T04:00:23;11.02;;;9.43;;
37241;SDS011;23135;51.078;12.108;2023-05-23T04:02:48;10.18;;;9.07;;
37241;SDS011;23135;51.078;12.108;2023-05-23T04:05:15;16.00;;;9.95;;
37241;SDS011;23135;51.078;12.108;2023-05-23T04:07:41;9.80;;;8.77;;
37241;SDS011;23135;51.078;12.108;2023-05-23T04:10:08;12.48;;;8.82;;
37241;SDS011;23135;51.078;12.108;2023-05-23T04:12:33;15.57;;;9.52;;
37241;SDS011;23135;51.078;12.108;2023-05-23T04:14:59;14.27;;;9.50;;
37241;SDS011;23135;51.078;12.108;2023-05-23T04:17:25;11.48;;;9.18;;
37241;SDS011;23135;51.078;12.108;2023-05-23T04:19:54;12.75;;;9.32;;
37241;SDS011;23135;51.078;12.108;2023-05-23T04:22:20;11.85;;;9.10;;
37241;SDS011;23135;51.078;12.108;2023-05-23T04:24:45;17.30;;;10.52;;
37241;SDS011;23135;51.078;12.108;2023-05-23T04:27:11;17.33;;;10.55;;
37241;SDS011;23135;51.078;12.108;2023-05-23T04:29:37;11.15;;;9.63;;
37241;SDS011;23135;51.078;12.108;2023-05-23T04:32:03;16.92;;;9.20;;
37241;SDS011;23135;51.078;12.108;2023-05-23T04:34:30;12.70;;;10.13;;
37241;SDS011;23135;51.078;12.108;2023-05-23T04:36:58;11.95;;;9.55;;
37241;SDS011;23135;51.078;12.108;2023-05-23T04:39:26;12.40;;;9.63;;
37241;SDS011;23135;51.078;12.108;2023-05-23T04:41:52;16.17;;;10.70;;
37241;SDS011;23135;51.078;12.108;2023-05-23T04:44:18;23.45;;;11.07;;
37241;SDS011;23135;51.078;12.108;2023-05-23T04:46:44;12.95;;;11.10;;
37241;SDS011;23135;51.078;12.108;2023-05-23T04:49:10;11.75;;;10.60;;
37241;SDS011;23135;51.078;12.108;2023-05-23T04:51:37;17.80;;;10.93;;
37241;SDS011;23135;51.078;12.108;2023-05-23T04:54:02;12.93;;;11.10;;
37241;SDS011;23135;51.078;12.108;2023-05-23T04:56:28;12.75;;;9.88;;
37241;SDS011;23135;51.078;12.108;2023-05-23T04:58:54;12.77;;;11.25;;
37241;SDS011;23135;51.078;12.108;2023-05-23T05:01:20;19.30;;;11.55;;
37241;SDS011;23135;51.078;12.108;2023-05-23T05:03:48;13.60;;;9.90;;
37241;SDS011;23135;51.078;12.108;2023-05-23T05:06:14;18.25;;;11.55;;
37241;SDS011;23135;51.078;12.108;2023-05-23T05:08:41;17.85;;;11.18;;
37241;SDS011;23135;51.078;12.108;2023-05-23T05:11:08;15.23;;;11.77;;
37241;SDS011;23135;51.078;12.108;2023-05-23T05:13:34;13.60;;;10.98;;
37241;SDS011;23135;51.078;12.108;2023-05-23T05:16:00;13.52;;;11.10;;
37241;SDS011;23135;51.078;12.108;2023-05-23T05:18:26;16.42;;;11.63;;
37241;SDS011;23135;51.078;12.108;2023-05-23T05:20:52;15.77;;;11.20;;
37241;SDS011;23135;51.078;12.108;2023-05-23T05:23:17;17.95;;;11.93;;
37241;SDS011;23135;51.078;12.108;2023-05-23T05:25:43;17.15;;;10.50;;
37241;SDS011;23135;51.078;12.108;2023-05-23T05:28:08;15.70;;;11.60;;
37241;SDS011;23135;51.078;12.108;2023-05-23T05:30:34;13.55;;;11.45;;
37241;SDS011;23135;51.078;12.108;2023-05-23T05:33:01;14.48;;;11.75;;
37241;SDS011;23135;51.078;12.108;2023-05-23T05:35:29;12.90;;;10.95;;
37241;SDS011;23135;51.078;12.108;2023-05-23T05:37:55;13.43;;;11.32;;
37241;SDS011;23135;51.078;12.108;2023-05-23T05:40:21;18.40;;;11.35;;
37241;SDS011;23135;51.078;12.108;2023-05-23T05:42:46;17.08;;;10.77;;
37241;SDS011;23135;51.078;12.108;2023-05-23T05:45:12;13.25;;;11.85;;
37241;SDS011;23135;51.078;12.108;2023-05-23T05:47:37;23.42;;;11.70;;
37241;SDS011;23135;51.078;12.108;2023-05-23T05:50:06;17.08;;;12.18;;
37241;SDS011;23135;51.078;12.108;2023-05-23T05:52:34;14.02;;;10.60;;
37241;SDS011;23135;51.078;12.108;2023-05-23T05:55:07;13.25;;;11.48;;
37241;SDS011;23135;51.078;12.108;2023-05-23T05:57:37;14.70;;;11.02;;
37241;SDS011;23135;51.078;12.108;2023-05-23T06:00:07;13.95;;;10.80;;
37241;SDS011;23135;51.078;12.108;2023-05-23T06:02:39;13.70;;;10.82;;
37241;SDS011;23135;51.078;12.108;2023-05-23T06:05:07;13.23;;;11.15;;
37241;SDS011;23135;51.078;12.108;2023-05-23T06:07:36;15.82;;;11.50;;
37241;SDS011;23135;51.078;12.108;2023-05-23T06:10:02;15.32;;;12.40;;
37241;SDS011;23135;51.078;12.108;2023-05-23T06:12:28;13.00;;;10.48;;
37241;SDS011;23135;51.078;12.108;2023-05-23T06:14:54;17.05;;;12.80;;
37241;SDS011;23135;51.078;12.108;2023-05-23T06:17:19;12.80;;;10.85;;
37241;SDS011;23135;51.078;12.108;2023-05-23T06:19:45;18.90;;;11.45;;
37241;SDS011;23135;51.078;12.108;2023-05-23T06:22:10;15.18;;;10.88;;
37241;SDS011;23135;51.078;12.108;2023-05-23T06:24:36;19.70;;;10.40;;
37241;SDS011;23135;51.078;12.108;2023-05-23T06:27:02;13.45;;;10.43;;
37241;SDS011;23135;51.078;12.108;2023-05-23T06:29:27;16.38;;;11.40;;
37241;SDS011;23135;51.078;12.108;2023-05-23T06:31:55;14.30;;;11.27;;
37241;SDS011;23135;51.078;12.108;2023-05-23T06:34:20;14.02;;;10.98;;
37241;SDS011;23135;51.078;12.108;2023-05-23T06:36:46;13.48;;;10.88;;
37241;SDS011;23135;51.078;12.108;2023-05-23T06:39:12;17.65;;;12.00;;
37241;SDS011;23135;51.078;12.108;2023-05-23T06:41:38;15.30;;;11.55;;
37241;SDS011;23135;51.078;12.108;2023-05-23T06:44:04;15.35;;;11.52;;
37241;SDS011;23135;51.078;12.108;2023-05-23T06:46:30;18.60;;;11.13;;
37241;SDS011;23135;51.078;12.108;2023-05-23T06:48:55;16.90;;;12.25;;
37241;SDS011;23135;51.078;12.108;2023-05-23T06:51:21;17.20;;;12.88;;
37241;SDS011;23135;51.078;12.108;2023-05-23T06:53:46;22.55;;;12.57;;
37241;SDS011;23135;51.078;12.108;2023-05-23T06:56:12;15.05;;;11.05;;
37241;SDS011;23135;51.078;12.108;2023-05-23T06:58:38;19.08;;;11.85;;
37241;SDS011;23135;51.078;12.108;2023-05-23T07:01:03;17.73;;;11.43;;
37241;SDS011;23135;51.078;12.108;2023-05-23T07:03:29;20.60;;;13.98;;
37241;SDS011;23135;51.078;12.108;2023-05-23T07:05:55;24.42;;;15.63;;
37241;SDS011;23135;51.078;12.108;2023-05-23T07:08:20;21.80;;;15.38;;
37241;SDS011;23135;51.078;12.108;2023-05-23T07:10:46;24.50;;;14.48;;
37241;SDS011;23135;51.078;12.108;2023-05-23T07:13:11;22.95;;;14.90;;
37241;SDS011;23135;51.078;12.108;2023-05-23T07:15:37;18.73;;;12.48;;
37241;SDS011;23135;51.078;12.108;2023-05-23T07:18:02;16.95;;;11.63;;
37241;SDS011;23135;51.078;12.108;2023-05-23T07:20:28;17.95;;;12.40;;
37241;SDS011;23135;51.078;12.108;2023-05-23T07:22:54;16.85;;;11.20;;
37241;SDS011;23135;51.078;12.108;2023-05-23T07:25:21;14.55;;;9.15;;
37241;SDS011;23135;51.078;12.108;2023-05-23T07:27:47;10.52;;;7.95;;
37241;SDS011;23135;51.078;12.108;2023-05-23T07:30:12;17.67;;;7.78;;
37241;SDS011;23135;51.078;12.108;2023-05-23T07:32:38;9.77;;;7.32;;
37241;SDS011;23135;51.078;12.108;2023-05-23T07:35:04;13.05;;;7.03;;
37241;SDS011;23135;51.078;12.108;2023-05-23T07:37:30;11.57;;;7.32;;
37241;SDS011;23135;51.078;12.108;2023-05-23T07:39:56;11.57;;;7.38;;
37241;SDS011;23135;51.078;12.108;2023-05-23T07:42:21;11.70;;;7.72;;
37241;SDS011;23135;51.078;12.108;2023-05-23T07:44:47;9.75;;;7.55;;
37241;SDS011;23135;51.078;12.108;2023-05-23T07:47:12;9.48;;;6.82;;
37241;SDS011;23135;51.078;12.108;2023-05-23T07:49:38;11.05;;;7.45;;
37241;SDS011;23135;51.078;12.108;2023-05-23T07:52:03;11.77;;;7.97;;
37241;SDS011;23135;51.078;12.108;2023-05-23T07:54:29;15.68;;;8.10;;
37241;SDS011;23135;51.078;12.108;2023-05-23T07:56:55;12.35;;;7.75;;
37241;SDS011;23135;51.078;12.108;2023-05-23T07:59:20;8.63;;;6.80;;
37241;SDS011;23135;51.078;12.108;2023-05-23T08:01:46;7.70;;;6.07;;
37241;SDS011;23135;51.078;12.108;2023-05-23T08:04:14;11.00;;;6.53;;
37241;SDS011;23135;51.078;12.108;2023-05-23T08:06:41;7.15;;;5.85;;
37241;SDS011;23135;51.078;12.108;2023-05-23T08:09:06;8.75;;;5.43;;
37241;SDS011;23135;51.078;12.108;2023-05-23T08:11:32;9.18;;;5.35;;
37241;SDS011;23135;51.078;12.108;2023-05-23T08:13:57;7.32;;;5.72;;
37241;SDS011;23135;51.078;12.108;2023-05-23T08:16:24;8.73;;;5.45;;
37241;SDS011;23135;51.078;12.108;2023-05-23T08:18:50;6.07;;;5.53;;
37241;SDS011;23135;51.078;12.108;2023-05-23T08:21:16;5.18;;;4.47;;
37241;SDS011;23135;51.078;12.108;2023-05-23T08:23:41;10.57;;;5.10;;
37241;SDS011;23135;51.078;12.108;2023-05-23T08:26:07;10.02;;;6.78;;
37241;SDS011;23135;51.078;12.108;2023-05-23T08:28:32;7.85;;;6.43;;
37241;SDS011;23135;51.078;12.108;2023-05-23T08:30:58;12.75;;;5.95;;
37241;SDS011;23135;51.078;12.108;2023-05-23T08:33:24;7.18;;;5.35;;
37241;SDS011;23135;51.078;12.108;2023-05-23T08:35:50;5.57;;;4.75;;
37241;SDS011;23135;51.078;12.108;2023-05-23T08:38:16;7.93;;;4.78;;
37241;SDS011;23135;51.078;12.108;2023-05-23T08:40:48;5.57;;;4.38;;
37241;SDS011;23135;51.078;12.108;2023-05-23T08:43:16;7.18;;;4.47;;
37241;SDS011;23135;51.078;12.108;2023-05-23T08:45:42;8.77;;;5.03;;
37241;SDS011;23135;51.078;12.108;2023-05-23T08:48:08;6.78;;;5.07;;
37241;SDS011;23135;51.078;12.108;2023-05-23T08:50:37;5.53;;;4.53;;
37241;SDS011;23135;51.078;12.108;2023-05-23T08:53:05;8.77;;;5.03;;
37241;SDS011;23135;51.078;12.108;2023-05-23T08:55:34;12.60;;;4.10;;
37241;SDS011;23135;51.078;12.108;2023-05-23T08:58:01;12.10;;;3.25;;
37241;SDS011;23135;51.078;12.108;2023-05-23T09:00:28;5.53;;;3.75;;
37241;SDS011;23135;51.078;12.108;2023-05-23T09:02:54;3.78;;;3.13;;
37241;SDS011;23135;51.078;12.108;2023-05-23T09:05:21;2.70;;;1.95;;
37241;SDS011;23135;51.078;12.108;2023-05-23T09:07:46;3.17;;;2.47;;
37241;SDS011;23135;51.078;12.108;2023-05-23T09:10:13;4.97;;;2.53;;
37241;SDS011;23135;51.078;12.108;2023-05-23T09:12:44;3.35;;;1.95;;
37241;SDS011;23135;51.078;12.108;2023-05-23T09:15:10;5.45;;;3.05;;
37241;SDS011;23135;51.078;12.108;2023-05-23T09:17:36;5.70;;;3.20;;
37241;SDS011;23135;51.078;12.108;2023-05-23T09:20:04;5.65;;;2.35;;
37241;SDS011;23135;51.078;12.108;2023-05-23T09:22:36;4.70;;;2.40;;
37241;SDS011;23135;51.078;12.108;2023-05-23T09:25:01;2.67;;;2.10;;
37241;SDS011;23135;51.078;12.108;2023-05-23T09:27:27;4.30;;;1.73;;
37241;SDS011;23135;51.078;12.108;2023-05-23T09:29:53;6.60;;;2.13;;
37241;SDS011;23135;51.078;12.108;2023-05-23T09:32:19;3.30;;;1.83;;
37241;SDS011;23135;51.078;12.108;2023-05-23T09:37:30;17.17;;;3.10;;
37241;SDS011;23135;51.078;12.108;2023-05-23T09:40:00;2.38;;;2.17;;
37241;SDS011;23135;51.078;12.108;2023-05-23T09:42:33;1.45;;;1.20;;
37241;SDS011;23135;51.078;12.108;2023-05-23T09:44:59;2.40;;;2.10;;
37241;SDS011;23135;51.078;12.108;2023-05-23T09:47:25;5.25;;;2.03;;
37241;SDS011;23135;51.078;12.108;2023-05-23T09:49:51;2.17;;;1.60;;
37241;SDS011;23135;51.078;12.108;2023-05-23T09:52:16;2.45;;;2.05;;
37241;SDS011;23135;51.078;12.108;2023-05-23T09:54:44;2.10;;;1.80;;
37241;SDS011;23135;51.078;12.108;2023-05-23T09:57:10;4.60;;;1.77;;
37241;SDS011;23135;51.078;12.108;2023-05-23T09:59:40;2.05;;;1.55;;
37241;SDS011;23135;51.078;12.108;2023-05-23T10:02:12;1.02;;;0.82;;
37241;SDS011;23135;51.078;12.108;2023-05-23T10:04:41;1.50;;;1.33;;
37241;SDS011;23135;51.078;12.108;2023-05-23T10:09:43;2.85;;;1.00;;
37241;SDS011;23135;51.078;12.108;2023-05-23T10:14:57;3.95;;;1.10;;
37241;SDS011;23135;51.078;12.108;2023-05-23T10:19:57;2.33;;;0.57;;
37241;SDS011;23135;51.078;12.108;2023-05-23T10:22:32;7.18;;;2.33;;
37241;SDS011;23135;51.078;12.108;2023-05-23T10:25:01;1.65;;;0.93;;
37241;SDS011;23135;51.078;12.108;2023-05-23T10:27:28;1.75;;;0.82;;
37241;SDS011;23135;51.078;12.108;2023-05-23T10:29:54;2.50;;;1.10;;
37241;SDS011;23135;51.078;12.108;2023-05-23T10:32:20;1.20;;;1.20;;
37241;SDS011;23135;51.078;12.108;2023-05-23T10:40:14;3.40;;;0.50;;
37241;SDS011;23135;51.078;12.108;2023-05-23T10:42:55;1.50;;;0.85;;
37241;SDS011;23135;51.078;12.108;2023-05-23T10:45:29;1.88;;;1.10;;
37241;SDS011;23135;51.078;12.108;2023-05-23T10:48:06;4.47;;;0.50;;
37241;SDS011;23135;51.078;12.108;2023-05-23T10:51:03;0.52;;;0.40;;
37241;SDS011;23135;51.078;12.108;2023-05-23T10:53:30;0.95;;;0.60;;
37241;SDS011;23135;51.078;12.108;2023-05-23T10:55:58;1.02;;;0.77;;
37241;SDS011;23135;51.078;12.108;2023-05-23T10:58:23;2.17;;;0.40;;
37241;SDS011;23135;51.078;12.108;2023-05-23T11:00:52;0.70;;;0.32;;
37241;SDS011;23135;51.078;12.108;2023-05-23T11:04:23;0.38;;;0.38;;
37241;SDS011;23135;51.078;12.108;2023-05-23T11:09:03;5.47;;;0.30;;
37241;SDS011;23135;51.078;12.108;2023-05-23T11:17:13;0.50;;;0.43;;
37241;SDS011;23135;51.078;12.108;2023-05-23T11:19:57;2.05;;;0.55;;
37241;SDS011;23135;51.078;12.108;2023-05-23T11:22:30;0.70;;;0.10;;
37241;SDS011;23135;51.078;12.108;2023-05-23T11:24:56;2.45;;;0.55;;
37241;SDS011;23135;51.078;12.108;2023-05-23T11:27:26;2.60;;;0.57;;
37241;SDS011;23135;51.078;12.108;2023-05-23T11:29:56;1.05;;;0.45;;
37241;SDS011;23135;51.078;12.108;2023-05-23T11:32:22;1.48;;;0.10;;
37241;SDS011;23135;51.078;12.108;2023-05-23T11:34:47;0.35;;;0.17;;
37241;SDS011;23135;51.078;12.108;2023-05-23T11:37:14;0.10;;;0.10;;
37241;SDS011;23135;51.078;12.108;2023-05-23T11:39:41;1.85;;;0.30;;
37241;SDS011;23135;51.078;12.108;2023-05-23T11:42:06;1.15;;;0.10;;
37241;SDS011;23135;51.078;12.108;2023-05-23T11:44:32;1.77;;;0.00;;
37241;SDS011;23135;51.078;12.108;2023-05-23T11:47:01;0.10;;;0.00;;
37241;SDS011;23135;51.078;12.108;2023-05-23T11:49:33;2.08;;;0.13;;
37241;SDS011;23135;51.078;12.108;2023-05-23T11:52:01;0.15;;;0.10;;
37241;SDS011;23135;51.078;12.108;2023-05-23T11:54:28;1.75;;;0.20;;
37241;SDS011;23135;51.078;12.108;2023-05-23T11:56:54;0.30;;;0.15;;
37241;SDS011;23135;51.078;12.108;2023-05-23T11:59:20;0.20;;;0.00;;
37241;SDS011;23135;51.078;12.108;2023-05-23T12:01:46;0.10;;;0.10;;
37241;SDS011;23135;51.078;12.108;2023-05-23T12:04:12;0.95;;;0.20;;
37241;SDS011;23135;51.078;12.108;2023-05-23T12:06:38;0.40;;;0.30;;
37241;SDS011;23135;51.078;12.108;2023-05-23T12:09:05;0.10;;;0.10;;
37241;SDS011;23135;51.078;12.108;2023-05-23T12:11:31;0.20;;;0.20;;
37241;SDS011;23135;51.078;12.108;2023-05-23T12:13:58;0.30;;;0.10;;
37241;SDS011;23135;51.078;12.108;2023-05-23T12:16:27;0.65;;;0.38;;
37241;SDS011;23135;51.078;12.108;2023-05-23T12:18:53;0.25;;;0.25;;
37241;SDS011;23135;51.078;12.108;2023-05-23T12:21:23;0.30;;;0.28;;
37241;SDS011;23135;51.078;12.108;2023-05-23T12:23:50;0.32;;;0.32;;
37241;SDS011;23135;51.078;12.108;2023-05-23T12:26:16;2.28;;;0.28;;
37241;SDS011;23135;51.078;12.108;2023-05-23T12:28:42;0.50;;;0.50;;
37241;SDS011;23135;51.078;12.108;2023-05-23T12:33:41;2.92;;;0.73;;
37241;SDS011;23135;51.078;12.108;2023-05-23T12:36:08;3.17;;;0.70;;
37241;SDS011;23135;51.078;12.108;2023-05-23T12:38:35;0.38;;;0.38;;
37241;SDS011;23135;51.078;12.108;2023-05-23T12:41:08;0.30;;;0.20;;
37241;SDS011;23135;51.078;12.108;2023-05-23T12:43:36;1.33;;;0.45;;
37241;SDS011;23135;51.078;12.108;2023-05-23T12:46:03;1.27;;;0.52;;
37241;SDS011;23135;51.078;12.108;2023-05-23T12:48:30;3.03;;;0.57;;
37241;SDS011;23135;51.078;12.108;2023-05-23T12:50:56;0.68;;;0.60;;
37241;SDS011;23135;51.078;12.108;2023-05-23T12:53:21;2.40;;;0.40;;
37241;SDS011;23135;51.078;12.108;2023-05-23T12:55:47;1.60;;;0.15;;
37241;SDS011;23135;51.078;12.108;2023-05-23T12:58:12;2.28;;;0.43;;
37241;SDS011;23135;51.078;12.108;2023-05-23T13:00:38;0.00;;;0.00;;
37241;SDS011;23135;51.078;12.108;2023-05-23T13:03:03;0.20;;;0.20;;
37241;SDS011;23135;51.078;12.108;2023-05-23T13:05:30;0.50;;;0.10;;
37241;SDS011;23135;51.078;12.108;2023-05-23T13:07:56;0.28;;;0.10;;
37241;SDS011;23135;51.078;12.108;2023-05-23T13:10:23;0.98;;;0.10;;
37241;SDS011;23135;51.078;12.108;2023-05-23T13:12:49;0.73;;;0.30;;
37241;SDS011;23135;51.078;12.108;2023-05-23T13:15:14;0.13;;;0.13;;
37241;SDS011;23135;51.078;12.108;2023-05-23T13:17:41;2.30;;;0.47;;
37241;SDS011;23135;51.078;12.108;2023-05-23T13:20:06;0.60;;;0.28;;
37241;SDS011;23135;51.078;12.108;2023-05-23T13:22:33;0.52;;;0.10;;
37241;SDS011;23135;51.078;12.108;2023-05-23T13:24:59;2.75;;;0.30;;
37241;SDS011;23135;51.078;12.108;2023-05-23T13:27:24;1.05;;;0.30;;
37241;SDS011;23135;51.078;12.108;2023-05-23T13:29:50;2.67;;;0.35;;
37241;SDS011;23135;51.078;12.108;2023-05-23T13:32:16;0.75;;;0.30;;
37241;SDS011;23135;51.078;12.108;2023-05-23T13:34:41;0.38;;;0.38;;
37241;SDS011;23135;51.078;12.108;2023-05-23T13:37:07;0.68;;;0.50;;
37241;SDS011;23135;51.078;12.108;2023-05-23T13:39:33;0.65;;;0.10;;
37241;SDS011;23135;51.078;12.108;2023-05-23T13:41:58;0.88;;;0.25;;
37241;SDS011;23135;51.078;12.108;2023-05-23T13:44:24;1.27;;;0.80;;
37241;SDS011;23135;51.078;12.108;2023-05-23T13:46:49;2.22;;;0.75;;
37241;SDS011;23135;51.078;12.108;2023-05-23T13:49:15;4.07;;;1.30;;
37241;SDS011;23135;51.078;12.108;2023-05-23T13:51:40;0.93;;;0.60;;
37241;SDS011;23135;51.078;12.108;2023-05-23T13:54:07;5.68;;;0.55;;
37241;SDS011;23135;51.078;12.108;2023-05-23T13:56:33;1.08;;;0.57;;
37241;SDS011;23135;51.078;12.108;2023-05-23T13:58:58;0.75;;;0.20;;
37241;SDS011;23135;51.078;12.108;2023-05-23T14:01:24;0.50;;;0.10;;
37241;SDS011;23135;51.078;12.108;2023-05-23T14:03:50;0.52;;;0.35;;
37241;SDS011;23135;51.078;12.108;2023-05-23T14:06:16;1.10;;;0.30;;
37241;SDS011;23135;51.078;12.108;2023-05-23T14:08:41;0.30;;;0.20;;
37241;SDS011;23135;51.078;12.108;2023-05-23T14:11:07;0.65;;;0.10;;
37241;SDS011;23135;51.078;12.108;2023-05-23T14:13:32;0.65;;;0.20;;
37241;SDS011;23135;51.078;12.108;2023-05-23T14:15:58;2.75;;;0.20;;
37241;SDS011;23135;51.078;12.108;2023-05-23T14:18:23;0.30;;;0.10;;
37241;SDS011;23135;51.078;12.108;2023-05-23T14:20:49;0.20;;;0.05;;
37241;SDS011;23135;51.078;12.108;2023-05-23T14:23:14;0.17;;;0.00;;
37241;SDS011;23135;51.078;12.108;2023-05-23T14:25:40;1.95;;;0.35;;
37241;SDS011;23135;51.078;12.108;2023-05-23T14:28:06;0.73;;;0.10;;
37241;SDS011;23135;51.078;12.108;2023-05-23T14:30:31;2.80;;;0.25;;
37241;SDS011;23135;51.078;12.108;2023-05-23T14:32:57;1.05;;;0.20;;
37241;SDS011;23135;51.078;12.108;2023-05-23T14:35:23;1.45;;;0.38;;
37241;SDS011;23135;51.078;12.108;2023-05-23T14:37:50;0.50;;;0.50;;
37241;SDS011;23135;51.078;12.108;2023-05-23T14:40:15;0.95;;;0.30;;
37241;SDS011;23135;51.078;12.108;2023-05-23T14:42:41;0.38;;;0.32;;
37241;SDS011;23135;51.078;12.108;2023-05-23T14:45:07;4.05;;;1.27;;
37241;SDS011;23135;51.078;12.108;2023-05-23T14:47:33;0.60;;;0.45;;
37241;SDS011;23135;51.078;12.108;2023-05-23T14:49:59;0.60;;;0.60;;
37241;SDS011;23135;51.078;12.108;2023-05-23T14:52:25;1.50;;;0.98;;
37241;SDS011;23135;51.078;12.108;2023-05-23T14:54:51;0.68;;;0.30;;
37241;SDS011;23135;51.078;12.108;2023-05-23T14:57:16;3.60;;;0.90;;